Salt Flat, Texas
Current Conditions -  °F | °C
As of 6:51 AM on Thursday 23 Oct 2014 (Local Time) from KGDP Reporting Station
Moderate Fog Moderate Fog  
Wind Chill: 55°   Ceiling: 100
Heat Index: 55°   Visibility: 0mi
Dew Point: 54°   Wind: 14mph
Humidity: 96%   Direction: 240°WSW
Pressure: 30.24"   Gusts: NA
Location:  31.33°N, 104.47°W
Report Text: KGDP 231251Z AUTO 24012KT M1/4SM FG VV001 13/12 A3024 RMK AO2 SLP189 T01280122
Loading
Personal Weather Stations






























Interactive Weather Map
Tropical Storm Tracking
New forecast layout! Learn more

10-Day Weather Forecast

Advertisements
Track Severe Weather on mobile